• Join FlightAware (Why Join?)
  • Login
  • US Flag 
08:16PM EDT


 

Airport Tracker/Info


-or-


 

Live Flight TrackerFlight Track Log ✈ AVN10 ✈ 18-Sep-2013 ✈ NVVV / VLI - YSSY / SYD

Flight Track Log - Related Links

Times and Time Zones

All times are in EDT time to prevent confusion due to time zone crossing. See the AVN10 flight status page for this flight to view local times or setup timezone preferences in your user account.

Time Position Orientation Groundspeed Altitude Reporting Facility
EDT Latitude Longitude Course Direction KTS MPH feet Rate Location/Type
12:43AM -18.4390 167.5206 226° Southwest  Level FlightAware Approximate
12:44AM -18.4957 167.4589 226° Southwest  Level FlightAware Approximate
12:45AM -18.5525 167.3971 226° Southwest  Level FlightAware Approximate
12:46AM -18.6092 167.3353 226° Southwest  Level FlightAware Approximate
12:47AM -18.6659 167.2734 226° Southwest  Level FlightAware Approximate
12:48AM -18.7226 167.2115 226° Southwest  Level FlightAware Approximate
12:49AM -18.7792 167.1495 226° Southwest  Level FlightAware Approximate
12:50AM -18.8359 167.0875 226° Southwest  Level FlightAware Approximate
12:51AM -18.8925 167.0255 226° Southwest  Level FlightAware Approximate
12:52AM -18.9491 166.9634 226° Southwest  Level FlightAware Approximate
12:53AM -19.0057 166.9012 226° Southwest  Level FlightAware Approximate
12:54AM -19.0622 166.8391 226° Southwest  Level FlightAware Approximate
12:55AM -19.1188 166.7769 226° Southwest  Level FlightAware Approximate
12:56AM -19.1753 166.7146 226° Southwest  Level FlightAware Approximate
12:57AM -19.2318 166.6523 226° Southwest  Level FlightAware Approximate
12:58AM -19.2882 166.5900 226° Southwest  Level FlightAware Approximate
12:59AM -19.3447 166.5276 226° Southwest  Level FlightAware Approximate
01:00AM -19.4011 166.4651 226° Southwest  Level FlightAware Approximate
01:01AM -19.4575 166.4027 226° Southwest  Level FlightAware Approximate
01:02AM -19.5139 166.3402 226° Southwest  Level FlightAware Approximate
01:03AM -19.5703 166.2776 226° Southwest  Level FlightAware Approximate
01:04AM -19.6266 166.2150 226° Southwest  Level FlightAware Approximate
01:05AM -19.6829 166.1524 226° Southwest  Level FlightAware Approximate
01:06AM -19.7392 166.0897 226° Southwest  Level FlightAware Approximate
01:07AM -19.7955 166.0269 226° Southwest  Level FlightAware Approximate
01:08AM -19.8518 165.9642 226° Southwest  Level FlightAware Approximate
01:09AM -19.9143 165.9085 212° Southwest  Level Estimated
01:10AM -19.9789 165.8555 218° Southwest  Level FlightAware Approximate
01:11AM -20.0435 165.8025 218° Southwest  Level FlightAware Approximate
01:12AM -20.1080 165.7494 218° Southwest  Level FlightAware Approximate
01:13AM -20.1726 165.6963 218° Southwest  Level FlightAware Approximate
01:14AM -20.2371 165.6431 218° Southwest  Level FlightAware Approximate
01:15AM -20.3016 165.5900 218° Southwest  Level FlightAware Approximate
01:16AM -20.3661 165.5367 218° Southwest  Level FlightAware Approximate
01:17AM -20.4306 165.4834 218° Southwest  Level FlightAware Approximate
01:18AM -20.4951 165.4301 218° Southwest  Level FlightAware Approximate
01:19AM -20.5595 165.3767 218° Southwest  Level FlightAware Approximate
01:20AM -20.6240 165.3233 218° Southwest  Level FlightAware Approximate
01:21AM -20.6884 165.2698 218° Southwest  Level FlightAware Approximate
01:22AM -20.7528 165.2163 218° Southwest  Level FlightAware Approximate
01:23AM -20.8172 165.1628 218° Southwest  Level FlightAware Approximate
01:23AM -21.6802 163.8842 219° Southwest 32,000  Level Aus ATC (Calculated)
01:25AM -21.7908 163.7963 216° Southwest  Level FlightAware Approximate
01:26AM -21.8547 163.7456 216° Southwest  Level FlightAware Approximate
01:26AM -21.9108 163.6160 219° Southwest 32,000  Level Aus ATC (Calculated)
01:28AM -22.0218 163.5284 216° Southwest  Level FlightAware Approximate
01:28AM -22.0382 163.4673 219° Southwest 32,000  Level Aus ATC (Calculated)
01:30AM -22.1654 163.3673 216° Southwest  Level FlightAware Approximate
01:31AM -22.2295 163.3169 216° Southwest  Level FlightAware Approximate
01:31AM -22.2776 163.1867 219° Southwest 32,000  Level Aus ATC (Calculated)
01:32AM -22.2936 163.2664 216° Southwest  Level FlightAware Approximate
01:32AM -22.3142 163.1437 219° Southwest 32,000  Level Aus ATC (Calculated)
01:34AM -22.4178 163.0630 216° Southwest  Level FlightAware Approximate
01:34AM -22.4223 163.0163 218° Southwest 32,000  Level Aus ATC (Calculated)
01:35AM -22.5253 162.8948 218° Southwest 32,000  Level Aus ATC (Calculated)
01:35AM -22.5253 162.8948 218° Southwest 32,000  Level Aus ATC (Calculated)
01:37AM -22.6149 162.8256 215° Southwest  Level FlightAware Approximate
01:38AM -22.6788 162.7761 216° Southwest  Level FlightAware Approximate
01:39AM -22.7428 162.7266 216° Southwest  Level FlightAware Approximate
01:40AM -22.8067 162.6770 216° Southwest  Level FlightAware Approximate
01:41AM -22.8707 162.6274 216° Southwest  Level FlightAware Approximate
01:42AM -22.9346 162.5778 216° Southwest  Level FlightAware Approximate
01:43AM -22.9985 162.5281 216° Southwest  Level FlightAware Approximate
01:44AM -23.0623 162.4783 216° Southwest  Level FlightAware Approximate
01:45AM -23.1262 162.4285 216° Southwest  Level FlightAware Approximate
01:46AM -23.1901 162.3786 216° Southwest  Level FlightAware Approximate
01:46AM -23.3721 161.8840 217° Southwest 32,000  Level Aus ATC (Calculated)
01:47AM -23.2539 162.3287 216° Southwest  Level FlightAware Approximate
01:48AM -23.4414 161.8325 214° Southwest  Level FlightAware Approximate
01:49AM -23.5063 161.7843 214° Southwest  Level FlightAware Approximate
01:50AM -23.5712 161.7359 214° Southwest  Level FlightAware Approximate
01:51AM -23.6361 161.6876 214° Southwest  Level FlightAware Approximate
01:52AM -23.7010 161.6392 214° Southwest  Level FlightAware Approximate
01:53AM -23.7659 161.5907 214° Southwest  Level FlightAware Approximate
01:54AM -23.8308 161.5422 214° Southwest  Level FlightAware Approximate
01:55AM -23.8956 161.4936 214° Southwest  Level FlightAware Approximate
01:56AM -23.9605 161.4450 214° Southwest  Level FlightAware Approximate
01:57AM -24.0253 161.3964 214° Southwest  Level FlightAware Approximate
01:58AM -24.0901 161.3477 214° Southwest  Level FlightAware Approximate
01:59AM -24.1549 161.2989 214° Southwest  Level FlightAware Approximate
02:00AM -24.2197 161.2501 214° Southwest  Level FlightAware Approximate
02:01AM -24.2844 161.2013 215° Southwest  Level FlightAware Approximate
02:02AM -24.3492 161.1524 215° Southwest  Level FlightAware Approximate
02:03AM -24.4139 161.1034 215° Southwest  Level FlightAware Approximate
02:04AM -24.4786 161.0544 215° Southwest  Level FlightAware Approximate
02:05AM -24.5433 161.0054 215° Southwest  Level FlightAware Approximate
02:06AM -24.6080 160.9563 215° Southwest  Level FlightAware Approximate
02:07AM -24.6726 160.9071 215° Southwest  Level FlightAware Approximate
02:07AM -24.9912 160.1168 212° Southwest 32,000  Level Aus ATC (Calculated)
02:09AM -25.1239 160.0265 212° Southwest  Level FlightAware Approximate
02:10AM -25.1908 159.9809 212° Southwest  Level FlightAware Approximate
02:10AM -25.2861 159.9158 212° Southwest 32,000  Level Aus ATC (Calculated)
02:11AM -25.4334 159.8149 212° Southwest 32,000 60 Level Aus ATC (Calculated)
02:13AM -25.5312 159.7478 212° Southwest  Level FlightAware Approximate
02:14AM -25.5971 159.7025 212° Southwest  Level FlightAware Approximate
02:15AM -25.6630 159.6572 212° Southwest  Level FlightAware Approximate
02:16AM -25.7289 159.6118 212° Southwest  Level FlightAware Approximate
02:17AM -25.7947 159.5663 212° Southwest  Level FlightAware Approximate
02:17AM -26.0221 159.4090 212° Southwest 32,000  Level Aus ATC (Calculated)
02:19AM -26.1252 159.3374 212° Southwest  Level FlightAware Approximate
02:20AM -26.1909 159.2916 212° Southwest  Level FlightAware Approximate
02:21AM -26.2567 159.2458 212° Southwest  Level FlightAware Approximate
02:21AM -26.4628 159.1018 212° Southwest 32,000  Level Aus ATC (Calculated)
02:22AM -26.3224 159.1999 212° Southwest  Level FlightAware Approximate
02:23AM -26.3882 159.1540 212° Southwest  Level FlightAware Approximate
02:24AM -26.6051 159.0020 212° Southwest  Level FlightAware Approximate
02:25AM -26.6708 158.9559 212° Southwest  Level FlightAware Approximate
02:26AM -26.7364 158.9097 212° Southwest  Level FlightAware Approximate
02:27AM -26.8020 158.8635 212° Southwest  Level FlightAware Approximate
02:28AM -26.8677 158.8172 212° Southwest  Level FlightAware Approximate
02:29AM -26.9333 158.7708 212° Southwest  Level FlightAware Approximate
02:30AM -26.9988 158.7244 212° Southwest  Level FlightAware Approximate
02:30AM -27.2933 158.5153 212° Southwest 32,000  Level Aus ATC (Calculated)
02:31AM -27.4396 158.4109 212° Southwest 32,000 240 Level Aus ATC (Calculated)
02:32AM -27.5858 158.3062 212° Southwest 32,000 300 Level Aus ATC (Calculated)
02:33AM -27.5509 158.3313 212° Southwest  Level FlightAware Approximate
02:33AM -27.6832 158.2363 211° Southwest 32,000  Level Aus ATC (Calculated)
02:34AM -27.6577 158.2546 212° Southwest  Level FlightAware Approximate
02:35AM -27.7617 158.1798 212° Southwest  Level FlightAware Approximate
02:35AM -27.7806 158.1662 33° Northeast 32,000  Level Aus ATC (Calculated)
02:36AM -27.9753 158.0257 33° Northeast 32,000 420 Level Aus ATC (Calculated)
02:37AM -27.9753 158.0257 33° Northeast 32,000 540 Level Aus ATC (Calculated)
02:38AM -28.0504 157.9713 213° Southwest  Level FlightAware Approximate
02:40AM -28.1712 157.8837 213° Southwest  Level FlightAware Approximate
02:41AM -28.2365 157.8362 213° Southwest  Level FlightAware Approximate
02:41AM -28.3641 157.7433 33° Northeast 32,000  Level Aus ATC (Calculated)
02:41AM -28.4127 157.7078 33° Northeast 32,000 1,500 Level Aus ATC (Calculated)
02:43AM -28.5192 157.6299 213° Southwest  Level FlightAware Approximate
02:43AM -28.6069 157.5656 33° Northeast 32,000  Level Aus ATC (Calculated)
02:43AM -27.7165 158.2139 213° Southwest 370 426 36,000 3,720 Climbing Aus ATC (RADAR)
02:44AM -27.7613 158.1752 217° Southwest 362 417 36,000  Level Aus ATC (RADAR)
02:45AM -27.8299 158.1285 211° Southwest 367 422 36,000  Level Aus ATC (RADAR)
02:45AM -27.8733 158.0970 213° Southwest 373 429 36,000  Level Aus ATC (RADAR)
02:46AM -27.9551 158.0321 215° Southwest 369 425 36,000  Level Aus ATC (RADAR)
02:46AM -27.9798 158.0163 210° Southwest 380 437 36,000  Level Aus ATC (RADAR)
02:47AM -28.0337 157.9789 211° Southwest 387 445 36,000  Level Aus ATC (RADAR)
02:48AM -28.1510 157.8981 211° Southwest 390 449 36,000  Level Aus ATC (RADAR)
02:49AM -28.1898 157.8731 210° Southwest 385 443 36,000  Level Aus ATC (RADAR)
02:49AM -28.2464 157.8387 208° Southwest 388 447 36,000  Level Aus ATC (RADAR)
02:50AM -28.3181 157.7943 209° Southwest 392 451 36,000  Level Aus ATC (RADAR)
02:50AM -28.3743 157.7594 209° Southwest 394 453 36,000  Level Aus ATC (RADAR)
02:51AM -28.4552 157.7097 208° Southwest 396 456 36,000  Level Aus ATC (RADAR)
02:52AM -28.4964 157.6847 208° Southwest 399 459 36,000  Level Aus ATC (RADAR)
02:53AM -28.5763 157.6348 209° Southwest 397 457 36,000  Level Aus ATC (RADAR)
02:53AM -28.6172 157.6098 208° Southwest 397 457 36,000  Level Aus ATC (RADAR)
02:53AM -28.6579 157.5846 209° Southwest 399 459 36,000  Level Aus ATC (RADAR)
02:54AM -28.7147 157.5492 209° Southwest 399 459 36,000  Level Aus ATC (RADAR)
02:55AM -28.7884 157.5037 208° Southwest 402 463 36,000  Level Aus ATC (RADAR)
02:55AM -28.8538 157.4630 209° Southwest 402 463 36,000  Level Aus ATC (RADAR)
02:56AM -28.9354 157.4123 209° Southwest 402 463 36,000  Level Aus ATC (RADAR)
02:56AM -28.9600 157.3969 209° Southwest 403 464 36,000  Level Aus ATC (RADAR)
02:57AM -29.0170 157.3613 209° Southwest 403 464 36,000  Level Aus ATC (RADAR)
02:58AM -29.1150 157.2998 209° Southwest 404 465 36,000  Level Aus ATC (RADAR)
02:58AM -29.1558 157.2741 209° Southwest 404 465 36,000  Level Aus ATC (RADAR)
02:59AM -29.2118 157.2328 213° Southwest 410 472 36,000  Level Aus ATC (RADAR)
03:00AM -29.2775 157.1730 218° Southwest 409 471 36,000 -180 Level Aus ATC (RADAR)
03:00AM -29.3344 157.1212 218° Southwest 399 459 35,800 -120 Descending Aus ATC (RADAR)
03:01AM -29.4001 157.0619 218° Southwest 399 459 35,900 60 Climbing Aus ATC (RADAR)
03:02AM -29.4367 157.0291 218° Southwest 401 461 35,900  Level Aus ATC (RADAR)
03:02AM -29.4871 156.9837 218° Southwest 398 458 35,900  Level Aus ATC (RADAR)
03:03AM -29.5530 156.9242 218° Southwest 401 461 35,900 60 Level Aus ATC (RADAR)
03:03AM -29.5900 156.8909 218° Southwest 404 465 36,000  Climbing Aus ATC (RADAR)
03:04AM -29.6484 156.8379 218° Southwest 402 463 35,900 -180 Descending Aus ATC (RADAR)
03:05AM -29.7140 156.7781 218° Southwest 402 463 35,800 -120 Descending Aus ATC (RADAR)
03:05AM -29.7723 156.7254 218° Southwest 401 461 35,800 60 Level Aus ATC (RADAR)
03:06AM -29.8449 156.6593 218° Southwest 400 460 35,900  Climbing Aus ATC (RADAR)
03:07AM -29.8815 156.6262 218° Southwest 400 460 35,800 -120 Descending Aus ATC (RADAR)
03:07AM -29.9328 156.5795 218° Southwest 402 463 35,800  Level Aus ATC (RADAR)
03:08AM -30.0130 156.5061 218° Southwest 402 463 35,800 60 Level Aus ATC (RADAR)
03:09AM -30.0574 156.4656 218° Southwest 404 465 35,900  Climbing Aus ATC (RADAR)
03:09AM -30.1092 156.4182 218° Southwest 407 468 35,800 -120 Descending Aus ATC (RADAR)
03:10AM -30.1674 156.3647 218° Southwest 404 465 35,800  Level Aus ATC (RADAR)
03:10AM -30.2186 156.3175 219° Southwest 404 465 35,800  Level Aus ATC (RADAR)
03:11AM -30.2851 156.2565 218° Southwest 407 468 35,800  Level Aus ATC (RADAR)
03:12AM -30.3223 156.2223 218° Southwest 410 472 35,800  Level Aus ATC (RADAR)
03:12AM -30.3740 156.1745 219° Southwest 409 471 35,800  Level Aus ATC (RADAR)
03:13AM -30.4632 156.0920 219° Southwest 411 473 35,800  Level Aus ATC (RADAR)
03:14AM -30.5004 156.0575 219° Southwest 412 474 35,800  Level Aus ATC (RADAR)
03:14AM -30.5521 156.0098 219° Southwest 409 471 35,800  Level Aus ATC (RADAR)
03:15AM -30.6340 155.9337 219° Southwest 412 474 35,800  Level Aus ATC (RADAR)
03:16AM -30.6861 155.8852 219° Southwest 413 475 35,800  Level Aus ATC (RADAR)
03:16AM -30.7533 155.8226 219° Southwest 414 476 35,800  Level Aus ATC (RADAR)
03:17AM -30.7982 155.7808 219° Southwest 415 478 35,800  Level Aus ATC (RADAR)
03:18AM -30.8509 155.7316 219° Southwest 417 480 35,800  Level Aus ATC (RADAR)
03:18AM -30.9338 155.6540 219° Southwest 418 481 35,800  Level Aus ATC (RADAR)
03:19AM -30.9791 155.6115 219° Southwest 419 482 35,800  Level Aus ATC (RADAR)
03:20AM -31.0323 155.5616 219° Southwest 421 484 35,800  Level Aus ATC (RADAR)
03:20AM -31.0855 155.5115 219° Southwest 423 487 35,800  Level Aus ATC (RADAR)
03:21AM -31.1389 155.4618 219° Southwest 422 486 35,800  Level Aus ATC (RADAR)
03:21AM -31.2074 155.3979 219° Southwest 422 486 35,800  Level Aus ATC (RADAR)
03:22AM -31.2448 155.3621 219° Southwest 420 483 35,800  Level Aus ATC (RADAR)
03:23AM -31.3052 155.3042 219° Southwest 422 486 35,800  Level Aus ATC (RADAR)
03:24AM -31.4193 155.1962 219° Southwest 423 487 35,800  Level Aus ATC (RADAR)
03:24AM -31.4419 155.1748 219° Southwest 421 484 35,800  Level Aus ATC (RADAR)
03:25AM -31.4947 155.1244 219° Southwest 419 482 35,800  Level Aus ATC (RADAR)
03:25AM -31.5627 155.0594 219° Southwest 421 484 35,800  Level Aus ATC (RADAR)
03:26AM -31.6158 155.0088 219° Southwest 422 486 35,800  Level Aus ATC (RADAR)
03:27AM -31.6836 154.9440 219° Southwest 421 484 35,800  Level Aus ATC (RADAR)
03:27AM -31.7288 154.9009 219° Southwest 420 483 35,800 240 Level Aus ATC (RADAR)
03:27AM -31.7460 154.8840 219° Southwest 418 481 36,000  Climbing FlightAware
03:28AM -31.7811 154.8506 219° Southwest 418 481 35,800  Descending Aus ATC (RADAR)
03:28AM -31.7920 154.8400 219° Southwest 417 480 36,000 240 Climbing FlightAware
03:29AM -31.8510 154.7840 219° Southwest 415 478 36,000 -180 Level FlightAware
03:29AM -31.9074 154.7292 219° Southwest 414 476 35,800  Descending Aus ATC (RADAR)
03:29AM -31.9000 154.7360 219° Southwest 415 478 36,000  Climbing FlightAware
03:30AM -31.9593 154.6791 219° Southwest 415 478 35,800  Descending Aus ATC (RADAR)
03:30AM -31.9690 154.6700 219° Southwest 415 478 36,000 240 Climbing FlightAware
03:31AM -32.0190 154.6220 219° Southwest 415 478 36,000  Level FlightAware
03:31AM -32.0790 154.5640 219° Southwest 414 476 36,000 -180 Level FlightAware
03:32AM -32.1292 154.5150 219° Southwest 410 472 35,800  Descending Aus ATC (RADAR)
03:32AM -32.1640 154.4820 219° Southwest 412 474 36,000 180 Climbing FlightAware
03:33AM -32.2070 154.4400 220° Southwest 412 474 36,000  Level FlightAware
03:33AM -32.2700 154.3790 219° Southwest 410 472 36,000  Level FlightAware
03:34AM -32.3200 154.3300 220° Southwest 409 471 36,000  Level FlightAware
03:35AM -32.3730 154.2780 220° Southwest 411 473 36,000  Level FlightAware
03:35AM -32.4250 154.2270 220° Southwest 414 476 36,000  Level FlightAware
03:36AM -32.4840 154.1700 219° Southwest 415 478 36,000  Level FlightAware
03:36AM -32.5230 154.1310 220° Southwest 416 479 36,000  Level FlightAware
03:37AM -32.5770 154.0790 219° Southwest 417 480 36,000  Level FlightAware
03:37AM -32.6260 154.0310 220° Southwest 418 481 36,000  Level FlightAware
03:38AM -32.6790 153.9790 220° Southwest 420 483 36,000  Level FlightAware
03:39AM -32.7470 153.9110 220° Southwest 421 484 36,000  Level FlightAware
03:39AM -32.7980 153.8610 219° Southwest 422 486 36,000  Level FlightAware
03:40AM -32.8540 153.8060 220° Southwest 423 487 36,000  Level FlightAware
03:41AM -32.9160 153.7440 220° Southwest 423 487 36,000  Level FlightAware
03:41AM -32.9690 153.6910 220° Southwest 425 489 36,000  Level FlightAware
03:42AM -33.0210 153.6390 220° Southwest 423 487 36,000  Level FlightAware
03:42AM -33.0700 153.5900 220° Southwest 423 487 36,000  Level FlightAware
03:43AM -33.1270 153.5340 219° Southwest 423 487 36,000  Level FlightAware
03:44AM -33.1780 153.4830 220° Southwest 422 486 36,000  Level FlightAware
03:44AM -33.2290 153.4320 220° Southwest 422 486 36,000 -300 Level FlightAware
03:45AM -33.2841 153.3765 220° Southwest 414 476 35,700  Descending Aus ATC (RADAR)
03:45AM -33.2840 153.3760 220° Southwest 422 486 36,000  Climbing FlightAware
03:45AM -33.3400 153.3198 220° Southwest 422 486 35,700  Descending Aus ATC (RADAR)
03:45AM -33.3350 153.3250 220° Southwest 421 484 36,000 540 Climbing FlightAware
03:46AM -33.3800 153.2810 219° Southwest 422 486 36,000  Level FlightAware
03:46AM -33.4430 153.2170 220° Southwest 423 487 36,000  Level FlightAware
03:47AM -33.4920 153.1670 220° Southwest 423 487 36,000  Level FlightAware
03:48AM -33.5440 153.1150 220° Southwest 421 484 36,000 -480 Level FlightAware
03:48AM -33.5527 153.1062 220° Southwest 414 476 35,700  Descending Aus ATC (RADAR)
03:48AM -33.5940 153.0640 220° Southwest 420 483 36,000  Climbing FlightAware
03:48AM -33.6045 153.0532 220° Southwest 413 475 35,700  Descending Aus ATC (RADAR)
03:49AM -33.6470 153.0100 220° Southwest 420 483 36,000 240 Climbing FlightAware
03:49AM -33.7010 152.9550 220° Southwest 421 484 36,000 -540 Level FlightAware
03:50AM -33.7597 152.8952 220° Southwest 410 472 35,400 -600 Descending Aus ATC (RADAR)
03:50AM -33.7620 152.8920 220° Southwest 415 478 35,600 -1,980 Climbing FlightAware
03:51AM -33.8220 152.8310 220° Southwest 407 468 33,900 -2,700 Descending FlightAware
03:51AM -33.8750 152.7783 220° Southwest 400 460 32,300 -2,340 Descending Aus ATC (RADAR)
03:51AM -33.8720 152.7810 220° Southwest 393 452 32,600 -2,160 Climbing FlightAware
03:52AM -33.9210 152.7310 220° Southwest 392 451 31,000 -2,520 Descending FlightAware
03:53AM -33.9750 152.6760 220° Southwest 381 438 29,500 -2,280 Descending FlightAware
03:53AM -34.0150 152.6350 220° Southwest 367 422 28,400 -2,760 Descending FlightAware
03:54AM -34.0615 152.5868 220° Southwest 362 417 26,600 -2,280 Descending Aus ATC (RADAR)
03:54AM -34.0580 152.5890 220° Southwest 352 405 27,000 -540 Climbing FlightAware
03:54AM -34.0680 152.5710 236° Southwest 340 391 26,500 -2,580 Descending FlightAware
03:54AM -34.0760 152.5420 252° West 334 384 25,900 -1,680 Descending FlightAware
03:54AM -34.0770 152.5230 266° West 334 384 25,700 -1,680 Descending FlightAware
03:55AM -34.0710 152.4470 275° West 323 372 24,500 -1,860 Descending FlightAware
03:56AM -34.0650 152.3850 277° West 329 379 23,400 -1,980 Descending FlightAware
03:56AM -34.0590 152.3220 277° West 323 372 22,200 -2,040 Descending FlightAware
03:57AM -34.0520 152.2500 277° West 316 364 20,900 -1,260 Descending FlightAware
03:58AM -34.0460 152.1850 276° West 316 364 20,500 -2,040 Descending FlightAware
03:58AM -34.0390 152.1130 277° West 317 365 18,400 -2,760 Descending FlightAware
03:59AM -34.0340 152.0560 276° West 312 359 17,400 -1,860 Descending FlightAware
03:59AM -34.0270 151.9920 278° West 306 352 16,200 -2,100 Descending FlightAware
04:00AM -34.0210 151.9310 277° West 302 348 14,900 -2,160 Descending FlightAware
04:00AM -34.0150 151.8740 277° West 299 344 13,700 -1,980 Descending FlightAware
04:01AM -34.0100 151.8210 276° West 293 337 12,700 -2,160 Descending FlightAware
04:02AM -34.0035 151.7592 276° West 289 333 11,300 -1,740 Descending Aus ATC (RADAR)
04:02AM -34.0040 151.7620 276° West 288 331 11,700 -720 Climbing FlightAware
04:02AM -33.9990 151.7120 276° West 280 322 10,900 -2,280 Descending FlightAware
04:02AM -33.9977 151.7048 276° West 280 322 10,400 -780 Descending Aus ATC (RADAR)
04:03AM -33.9930 151.6550 277° West 253 291 10,400 -840 Level FlightAware
04:03AM -33.9877 151.6042 277° West 235 270 9,400 -1,080 Descending Aus ATC (RADAR)
04:03AM -33.9880 151.6090 277° West 235 270 9,800  Climbing FlightAware
04:04AM -33.9860 151.5820 275° West 232 267 9,400 -1,080 Descending FlightAware
04:04AM -33.9820 151.5490 278° West 243 280 9,000 -1,020 Descending FlightAware
04:04AM -33.9790 151.5220 278° West 244 281 8,700 -1,080 Descending FlightAware
04:05AM -33.9770 151.5010 277° West 243 280 8,400 -1,080 Descending FlightAware
04:05AM -33.9730 151.4670 278° West 251 289 8,000 -960 Descending FlightAware
04:05AM -33.9710 151.4400 275° West 254 292 7,700 -840 Descending FlightAware
04:06AM -33.9680 151.4150 278° West 252 290 7,500 -1,020 Descending FlightAware
04:06AM -33.9790 151.3800 249° West 252 290 7,000 -1,080 Descending FlightAware
04:06AM -33.9880 151.3710 220° Southwest 263 303 6,900 -840 Descending FlightAware
04:06AM -33.9940 151.3670 209° Southwest 260 299 6,800 -1,140 Descending FlightAware
04:06AM -34.0000 151.3640 203° Southwest 264 304 6,700 -1,020 Descending FlightAware
04:07AM -34.0300 151.3510 200° South 276 318 6,300 -1,080 Descending FlightAware
04:07AM -34.0490 151.3480 187° South 274 315 6,000 -1,200 Descending FlightAware
04:07AM -34.0750 151.3540 169° South 278 320 5,600 -1,080 Descending FlightAware
04:08AM -34.1020 151.3590 171° South 277 319 5,300 -1,080 Descending FlightAware
04:08AM -34.1250 151.3480 202° Southwest 259 298 4,900 -840 Descending FlightAware
04:08AM -34.1300 151.3400 233° Southwest 256 295 4,800 -1,020 Descending FlightAware
04:09AM -34.1370 151.3180 249° West 247 284 4,400 -1,260 Descending FlightAware
04:09AM -34.1400 151.2920 262° West 223 257 4,200 -840 Descending FlightAware
04:09AM -34.1330 151.2710 292° West 215 247 3,900 -960 Descending FlightAware
04:09AM -34.1300 151.2690 331° Northwest 207 238 3,800 -720 Descending FlightAware
04:10AM -34.1150 151.2530 319° Northwest 193 222 3,600 -720 Descending FlightAware
04:10AM -34.0950 151.2330 320° Northwest 170 196 3,200 -840 Descending FlightAware
04:10AM -34.0850 151.2250 326° Northwest 169 194 3,000 -540 Descending FlightAware
04:11AM -34.0710 151.2200 344° North 164 189 2,800 -960 Descending FlightAware
04:11AM -34.0570 151.2170 350° North 163 188 2,300 -1,980 Descending FlightAware
04:12AM -34.0380 151.2120 348° North 162 186 1,600 -1,440 Descending FlightAware
04:12AM -34.0220 151.2080 348° North 159 183 1,200 -840 Descending FlightAware
04:13AM -33.9950 151.2000 346° North 147 169 800 -660 Descending FlightAware
04:13AM -33.9820 151.1970 349° North 135 155 600 -600 Descending FlightAware
04:13AM -33.9680 151.1930 347° North 137 158 400 -600 Descending FlightAware
04:14AM -33.9580 151.1900 346° North 76 87 -1,200 Descending FlightAware